Aeroporto :
LOGIN :

Iscrizione | Disclaimer

   EN    FR    IT 

 










Sommario :    VFR   VFR Marginale   IFR   IFR Intensivo   IFR Molto Intensivo
Visibilità : 
Base nubi : 
>= 8 km
>= 3000ft
5 / 8 km
1000 / 3000 ft
1500m / 5 km
500 / 1000 ft
800 / 1500m
200 / 500 ft
< 800m
< 200 ft
Simboli :   Temporali  Nebbia  Neve Forte  Precipitazioni Forti  Vento > 20 kt
SIGMETs :   Varie  Temporali  Ghiacco  Turbolenza  Onda orograficha  Ceneri Vulcaniche






- Altitudine del aeroporto : 1090 ft
- Codice IATA : CFE


LFLC - Clermont-Ferrand Auvergne

ULTIMO METAR :
  • 112000Z AUTO 30006KT 270V330 9999 FEW047 SCT054 BKN070 07/03 Q1012 NOSIG

METARs OBSOLETI :
  • 111930Z AUTO 30006KT 9999 FEW030 SCT052 BKN084 06/02 Q1012 NOSIG
  • 111900Z AUTO 29003KT 250V350 9999 SCT030 SCT039 BKN074 07/03 Q1011 NOSIG
  • 111830Z AUTO 32008KT 9999 FEW028 SCT054 OVC064 07/03 Q1011 NOSIG
  • 111800Z AUTO 31006KT 9999 FEW026/// SCT032/// BKN038/// ///TCU 07/03 Q1011 BECMG NSC
  • 111730Z AUTO 28007KT 210V350 9999 FEW011/// BKN033/// BKN072/// ///TCU 09/04 Q1009 BECMG NSC

TAF TAF LFLC
Valido dal 11 a 15 ore il 12 a 15 ore UTC


111400Z 1115/1215 18010KT CAVOK
TEMPO 1115/1118 VRB03KT RA BKN040
BECMG 1118/1120 32008KT
BECMG 1123/1201 18007KT
BECMG 1210/1212 28008KT
ATIS : +33 4 73 62 74 38



MetMap, La meteo Aeronautica in un colpo d'occhio ! - Copyright ORBIFLY Dicembre 2007 - Disclaimer

ORBIFLY MET'MAP TEAM :

Programmazione e sviluppo : Alexandra Zaïnal
Concezione e sviluppo : Baudouin d'Aumeries
Co-Programmazione e sviluppo : Marc-Olivier Méhu
Supporto tecnico e logistico : Manuel Goepfert
Aiuto per la traduzione : Arnaldo La Scala

Contatto : metmap@orbifly.com




FONTI E CREDITI :

   NOAA